createdAt,value
2017-01-17T00:00:29.817Z,491
2017-01-17T00:01:29.961Z,491
2017-01-17T00:02:30.068Z,491
2017-01-17T00:03:30.219Z,491
2017-01-17T00:04:30.306Z,491
2017-01-17T00:05:30.401Z,491
2017-01-17T00:06:30.531Z,491
2017-01-17T00:07:30.728Z,491
2017-01-17T00:08:30.821Z,490
2017-01-17T00:09:30.917Z,491
2017-01-17T00:10:31.024Z,490
2017-01-17T00:11:31.143Z,490
2017-01-17T00:12:31.232Z,489
2017-01-17T00:13:31.330Z,489
2017-01-17T00:14:31.521Z,491
2017-01-17T00:15:31.647Z,491
2017-01-17T00:16:31.845Z,490
2017-01-17T00:17:32.010Z,491
2017-01-17T00:18:32.132Z,490
2017-01-17T00:19:32.246Z,491
2017-01-17T00:20:32.329Z,491
2017-01-17T00:21:32.453Z,490
2017-01-17T00:22:32.583Z,490
2017-01-17T00:23:32.681Z,488
2017-01-17T00:24:32.786Z,490
2017-01-17T00:25:32.903Z,490
2017-01-17T00:26:33.018Z,489
2017-01-17T00:27:33.094Z,489
2017-01-17T00:28:33.205Z,488
2017-01-17T00:29:33.303Z,489
2017-01-17T00:30:33.442Z,488
2017-01-17T00:31:33.578Z,488
2017-01-17T00:32:33.718Z,488
2017-01-17T00:33:33.787Z,487
2017-01-17T00:34:33.883Z,486
2017-01-17T00:35:35.745Z,487
2017-01-17T00:36:35.829Z,488
2017-01-17T00:37:35.963Z,487
2017-01-17T00:38:36.057Z,488
2017-01-17T00:39:36.163Z,488
2017-01-17T00:40:36.350Z,488
2017-01-17T00:41:36.485Z,486
2017-01-17T00:42:36.610Z,487
2017-01-17T00:43:36.723Z,487
2017-01-17T00:44:36.853Z,486
2017-01-17T00:45:37.012Z,487
2017-01-17T00:46:37.162Z,486
2017-01-17T00:47:37.261Z,486
2017-01-17T00:48:37.406Z,486
2017-01-17T00:49:37.584Z,486
2017-01-17T00:50:37.691Z,486
2017-01-17T00:51:37.812Z,486
2017-01-17T00:52:38.013Z,487
2017-01-17T00:53:38.130Z,488
2017-01-17T00:54:38.230Z,487
2017-01-17T00:55:38.351Z,487
2017-01-17T00:56:38.477Z,486
2017-01-17T00:57:38.604Z,487
2017-01-17T00:58:38.713Z,487
2017-01-17T00:59:38.789Z,487
2017-01-17T01:00:39.018Z,486
2017-01-17T01:01:39.169Z,486
2017-01-17T01:02:39.318Z,486
2017-01-17T01:03:39.418Z,486
2017-01-17T01:04:39.529Z,486
2017-01-17T01:05:39.699Z,486
2017-01-17T01:06:39.907Z,485
2017-01-17T01:07:40.027Z,486
2017-01-17T01:08:40.104Z,485
2017-01-17T01:09:40.203Z,485
2017-01-17T01:10:40.306Z,484
2017-01-17T01:11:40.392Z,485
2017-01-17T01:12:40.510Z,485
2017-01-17T01:13:40.593Z,484
2017-01-17T01:14:40.684Z,484
2017-01-17T01:15:40.814Z,484
2017-01-17T01:16:40.931Z,484
2017-01-17T01:17:41.026Z,483
2017-01-17T01:18:41.121Z,484
2017-01-17T01:19:41.250Z,483
2017-01-17T01:20:41.421Z,483
2017-01-17T01:21:41.511Z,484
2017-01-17T01:22:41.624Z,483
2017-01-17T01:23:41.785Z,482
2017-01-17T01:24:41.864Z,483
2017-01-17T01:25:41.990Z,483
2017-01-17T01:26:42.079Z,482
2017-01-17T01:27:42.206Z,482
2017-01-17T01:28:42.327Z,482
2017-01-17T01:29:42.425Z,482
2017-01-17T01:30:42.587Z,482
2017-01-17T01:31:42.705Z,482
2017-01-17T01:32:42.829Z,482
2017-01-17T01:33:42.932Z,483
2017-01-17T01:34:43.085Z,481
2017-01-17T01:35:43.164Z,482
2017-01-17T01:36:43.250Z,482
2017-01-17T01:37:43.345Z,481
2017-01-17T01:38:43.436Z,482
2017-01-17T01:39:43.538Z,481
2017-01-17T01:40:43.653Z,482
2017-01-17T01:41:43.764Z,481
2017-01-17T01:42:43.873Z,480
2017-01-17T01:43:44.022Z,480
2017-01-17T01:44:44.157Z,479
2017-01-17T01:45:44.258Z,480
2017-01-17T01:46:44.365Z,479
2017-01-17T01:47:44.451Z,478
2017-01-17T01:48:44.581Z,479
2017-01-17T01:49:44.645Z,479
2017-01-17T01:50:44.717Z,478
2017-01-17T01:51:44.863Z,481
2017-01-17T01:52:45.005Z,481
2017-01-17T01:53:45.080Z,481
2017-01-17T01:54:45.250Z,480
2017-01-17T01:55:45.389Z,480
2017-01-17T01:56:45.520Z,481
2017-01-17T01:57:45.659Z,480
2017-01-17T01:58:45.783Z,479
2017-01-17T01:59:45.867Z,476
2017-01-17T02:00:45.986Z,480
2017-01-17T02:01:46.097Z,480
2017-01-17T02:02:46.212Z,479
2017-01-17T02:03:46.326Z,480
2017-01-17T02:04:46.425Z,479
2017-01-17T02:05:46.557Z,479
2017-01-17T02:06:46.666Z,479
2017-01-17T02:07:46.795Z,479
2017-01-17T02:08:46.953Z,477
2017-01-17T02:09:47.123Z,478
2017-01-17T02:10:47.202Z,478
2017-01-17T02:11:47.339Z,478
2017-01-17T02:12:47.495Z,478
2017-01-17T02:13:47.580Z,477
2017-01-17T02:14:47.685Z,478
2017-01-17T02:15:47.780Z,478
2017-01-17T02:16:47.928Z,469
2017-01-17T02:17:48.039Z,472
2017-01-17T02:18:48.160Z,473
2017-01-17T02:19:48.293Z,473
2017-01-17T02:20:48.431Z,475
2017-01-17T02:21:48.547Z,476
2017-01-17T02:22:48.632Z,476
2017-01-17T02:23:48.712Z,476
2017-01-17T02:24:48.861Z,476
2017-01-17T02:25:48.934Z,477
2017-01-17T02:26:49.050Z,477
2017-01-17T02:27:49.165Z,479
2017-01-17T02:28:49.296Z,478
2017-01-17T02:29:49.361Z,479
2017-01-17T02:30:49.637Z,476
2017-01-17T02:31:49.731Z,478
2017-01-17T02:32:49.897Z,478
2017-01-17T02:33:50.004Z,478
2017-01-17T02:34:50.131Z,458
2017-01-17T02:35:50.296Z,480
2017-01-17T02:36:50.446Z,478
2017-01-17T02:37:50.549Z,479
2017-01-17T02:38:50.661Z,478
2017-01-17T02:39:50.764Z,479
2017-01-17T02:40:50.834Z,480
2017-01-17T02:41:50.952Z,480
2017-01-17T02:42:51.085Z,480
2017-01-17T02:43:51.206Z,481
2017-01-17T02:44:51.270Z,514
2017-01-17T02:45:51.337Z,509
2017-01-17T02:46:51.489Z,510
2017-01-17T02:47:51.601Z,512
2017-01-17T02:48:51.740Z,510
2017-01-17T02:49:51.850Z,514
2017-01-17T02:50:51.969Z,518
2017-01-17T02:51:52.056Z,519
2017-01-17T02:52:52.133Z,519
2017-01-17T02:53:52.348Z,520
2017-01-17T02:54:52.451Z,518
2017-01-17T02:55:52.647Z,519
2017-01-17T02:56:52.762Z,521
2017-01-17T02:57:52.827Z,521
2017-01-17T02:58:52.907Z,522
2017-01-17T02:59:52.976Z,522
2017-01-17T03:00:53.077Z,521
2017-01-17T03:01:53.256Z,513
2017-01-17T03:02:53.333Z,514
2017-01-17T03:03:53.469Z,513
2017-01-17T03:04:53.630Z,513
2017-01-17T03:05:53.723Z,517
2017-01-17T03:06:53.806Z,520
2017-01-17T03:07:53.957Z,518
2017-01-17T03:08:54.089Z,519
2017-01-17T03:09:54.205Z,518
2017-01-17T03:10:54.419Z,516
2017-01-17T03:11:54.490Z,517
2017-01-17T03:12:54.563Z,514
2017-01-17T03:13:54.677Z,513
2017-01-17T03:14:54.761Z,514
2017-01-17T03:15:54.900Z,515
2017-01-17T03:16:54.966Z,516
2017-01-17T03:17:55.109Z,517
2017-01-17T03:18:55.194Z,517
2017-01-17T03:19:55.298Z,515
2017-01-17T03:20:55.450Z,516
2017-01-17T03:21:55.553Z,517
2017-01-17T03:22:55.646Z,520
2017-01-17T03:23:55.790Z,519
2017-01-17T03:24:55.918Z,518
2017-01-17T03:25:56.022Z,517
2017-01-17T03:26:56.136Z,518
2017-01-17T03:27:56.210Z,520
2017-01-17T03:28:56.336Z,519
2017-01-17T03:29:56.463Z,518
2017-01-17T03:30:56.547Z,519
2017-01-17T03:31:56.630Z,520
2017-01-17T03:32:56.735Z,521
2017-01-17T03:33:56.834Z,521
2017-01-17T03:34:56.947Z,522
2017-01-17T03:35:57.060Z,523
2017-01-17T03:36:57.176Z,519
2017-01-17T03:37:57.331Z,517
2017-01-17T03:38:57.438Z,523
2017-01-17T03:39:57.548Z,524
2017-01-17T03:40:57.673Z,522
2017-01-17T03:41:57.764Z,527
2017-01-17T03:42:57.839Z,524
2017-01-17T03:43:57.991Z,525
2017-01-17T03:44:58.135Z,526
2017-01-17T03:45:58.243Z,527
2017-01-17T03:46:58.374Z,530
2017-01-17T03:47:58.524Z,531
2017-01-17T03:48:58.654Z,530
2017-01-17T03:49:58.817Z,530
2017-01-17T03:50:58.912Z,531
2017-01-17T03:51:59.011Z,531
2017-01-17T03:52:59.163Z,531
2017-01-17T03:53:59.278Z,532
2017-01-17T03:54:59.429Z,532
2017-01-17T03:55:59.538Z,533
2017-01-17T03:56:59.622Z,532
2017-01-17T03:57:59.692Z,533
2017-01-17T03:58:59.781Z,532
2017-01-17T04:00:00.031Z,533
2017-01-17T04:01:00.152Z,532
2017-01-17T04:02:00.277Z,532
2017-01-17T04:03:00.431Z,533
2017-01-17T04:04:00.545Z,532
2017-01-17T04:05:00.631Z,532
2017-01-17T04:06:00.770Z,534
2017-01-17T04:07:00.849Z,536
2017-01-17T04:08:01.000Z,535
2017-01-17T04:09:01.088Z,535
2017-01-17T04:10:01.328Z,535
2017-01-17T04:11:01.501Z,535
2017-01-17T04:12:01.619Z,535
2017-01-17T04:13:01.692Z,536
2017-01-17T04:14:01.808Z,535
2017-01-17T04:15:01.936Z,536
2017-01-17T04:16:02.062Z,536
2017-01-17T04:17:02.157Z,536
2017-01-17T04:18:02.303Z,536
2017-01-17T04:19:02.373Z,540
2017-01-17T04:20:02.442Z,542
2017-01-17T04:21:02.531Z,542
2017-01-17T04:22:02.719Z,543
2017-01-17T04:23:02.788Z,542
2017-01-17T04:24:02.933Z,543
2017-01-17T04:25:03.052Z,545
2017-01-17T04:26:03.196Z,545
2017-01-17T04:27:03.308Z,544
2017-01-17T04:28:03.396Z,544
2017-01-17T04:29:03.477Z,544
2017-01-17T04:30:03.626Z,545
2017-01-17T04:31:03.705Z,545
2017-01-17T04:32:03.813Z,544
2017-01-17T04:33:03.966Z,543
2017-01-17T04:34:04.101Z,543
2017-01-17T04:35:04.240Z,544
2017-01-17T04:36:04.381Z,543
2017-01-17T04:37:04.501Z,543
2017-01-17T04:38:04.682Z,544
2017-01-17T04:39:04.871Z,545
2017-01-17T04:40:04.948Z,543
2017-01-17T04:41:05.019Z,544
2017-01-17T04:42:05.110Z,545
2017-01-17T04:43:05.226Z,544
2017-01-17T04:44:05.479Z,544
2017-01-17T04:45:05.624Z,542
2017-01-17T04:46:05.707Z,543
2017-01-17T04:47:05.826Z,543
2017-01-17T04:48:05.978Z,535
2017-01-17T04:49:06.061Z,536
2017-01-17T04:50:06.186Z,543
2017-01-17T04:51:06.257Z,544
2017-01-17T04:52:06.406Z,543
2017-01-17T04:53:06.529Z,544
2017-01-17T04:54:06.641Z,542
2017-01-17T04:55:06.744Z,548
2017-01-17T04:56:06.865Z,547
2017-01-17T04:57:06.948Z,544
2017-01-17T04:58:07.147Z,546
2017-01-17T04:59:07.287Z,546
2017-01-17T05:00:07.400Z,545
2017-01-17T05:01:07.501Z,542
2017-01-17T05:02:07.622Z,546
2017-01-17T05:03:07.710Z,544
2017-01-17T05:04:07.812Z,545
2017-01-17T05:05:08.014Z,545
2017-01-17T05:06:08.103Z,547
2017-01-17T05:07:08.216Z,548
2017-01-17T05:08:08.390Z,548
2017-01-17T05:09:08.488Z,546
2017-01-17T05:10:08.584Z,547
2017-01-17T05:11:08.675Z,547
2017-01-17T05:12:08.774Z,546
2017-01-17T05:13:08.932Z,547
2017-01-17T05:14:09.033Z,547
2017-01-17T05:15:09.248Z,549
2017-01-17T05:16:09.317Z,550
2017-01-17T05:17:09.490Z,548
2017-01-17T05:18:09.645Z,548
2017-01-17T05:19:09.723Z,548
2017-01-17T05:20:09.899Z,548
2017-01-17T05:21:09.999Z,546
2017-01-17T05:22:10.168Z,545
2017-01-17T05:23:10.301Z,547
2017-01-17T05:24:10.401Z,546
2017-01-17T05:25:10.518Z,548
2017-01-17T05:26:10.613Z,546
2017-01-17T05:27:10.726Z,545
2017-01-17T05:28:10.861Z,550
2017-01-17T05:29:11.054Z,550
2017-01-17T05:30:11.122Z,550
2017-01-17T05:31:11.239Z,548
2017-01-17T05:32:11.363Z,552
2017-01-17T05:33:11.467Z,550
2017-01-17T05:34:11.631Z,549
2017-01-17T05:35:11.734Z,550
2017-01-17T05:36:11.877Z,549
2017-01-17T05:37:12.052Z,552
2017-01-17T05:38:12.158Z,552
2017-01-17T05:39:12.247Z,552
2017-01-17T05:40:12.318Z,553
2017-01-17T05:41:12.383Z,553
2017-01-17T05:42:12.492Z,554
2017-01-17T05:43:12.633Z,553
2017-01-17T05:44:12.778Z,555
2017-01-17T05:45:12.912Z,551
2017-01-17T05:46:12.996Z,552
2017-01-17T05:47:13.091Z,551
2017-01-17T05:48:13.234Z,552
2017-01-17T05:49:13.374Z,551
2017-01-17T05:50:13.486Z,551
2017-01-17T05:51:13.575Z,551
2017-01-17T05:52:13.727Z,551
2017-01-17T05:53:13.847Z,551
2017-01-17T05:54:13.917Z,550
2017-01-17T05:55:13.988Z,551
2017-01-17T05:56:14.073Z,551
2017-01-17T05:57:14.190Z,552
2017-01-17T05:58:14.394Z,553
2017-01-17T05:59:14.474Z,552
2017-01-17T06:00:14.570Z,552
2017-01-17T06:01:14.693Z,551
2017-01-17T06:02:14.786Z,550
2017-01-17T06:03:14.866Z,551
2017-01-17T06:04:14.981Z,552
2017-01-17T06:05:15.193Z,552
2017-01-17T06:06:15.321Z,551
2017-01-17T06:07:15.431Z,552
2017-01-17T06:08:15.573Z,551
2017-01-17T06:09:15.639Z,551
2017-01-17T06:10:15.858Z,551
2017-01-17T06:11:15.956Z,551
2017-01-17T06:12:16.092Z,550
2017-01-17T06:13:16.256Z,550
2017-01-17T06:14:16.367Z,550
2017-01-17T06:15:16.509Z,549
2017-01-17T06:16:16.602Z,549
2017-01-17T06:17:16.694Z,549
2017-01-17T06:18:16.852Z,548
2017-01-17T06:19:16.912Z,548
2017-01-17T06:20:17.009Z,549
2017-01-17T06:21:17.109Z,548
2017-01-17T06:22:17.723Z,547
2017-01-17T06:23:18.230Z,547
2017-01-17T06:24:17.402Z,547
2017-01-17T06:25:18.229Z,546
2017-01-17T06:26:17.618Z,545
2017-01-17T06:27:17.785Z,545
2017-01-17T06:28:17.894Z,547
2017-01-17T06:29:18.047Z,548
2017-01-17T06:30:18.145Z,546
2017-01-17T06:31:18.249Z,548
2017-01-17T06:32:18.399Z,548
2017-01-17T06:33:18.489Z,548
2017-01-17T06:34:18.556Z,547
2017-01-17T06:35:18.647Z,548
2017-01-17T06:36:18.735Z,548
2017-01-17T06:37:18.901Z,547
2017-01-17T06:38:19.026Z,548
2017-01-17T06:39:19.177Z,547
2017-01-17T06:40:19.253Z,546
2017-01-17T06:41:19.359Z,549
2017-01-17T06:42:19.489Z,548
2017-01-17T06:43:19.574Z,548
2017-01-17T06:44:19.709Z,547
2017-01-17T06:45:19.827Z,548
2017-01-17T06:46:19.937Z,548
2017-01-17T06:47:20.015Z,547
2017-01-17T06:48:20.230Z,547
2017-01-17T06:49:20.425Z,547
2017-01-17T06:50:20.549Z,547
2017-01-17T06:51:20.724Z,547
2017-01-17T06:52:20.848Z,547
2017-01-17T06:53:20.972Z,548
2017-01-17T06:54:21.123Z,548
2017-01-17T06:55:21.190Z,548
2017-01-17T06:56:21.344Z,547
2017-01-17T06:57:21.520Z,547
2017-01-17T06:58:21.647Z,547
2017-01-17T06:59:21.711Z,547
2017-01-17T07:00:21.809Z,548
2017-01-17T07:01:21.903Z,547
2017-01-17T07:02:22.020Z,548
2017-01-17T07:03:22.108Z,547
2017-01-17T07:04:22.230Z,547
2017-01-17T07:05:22.331Z,546
2017-01-17T07:06:22.454Z,547
2017-01-17T07:07:22.563Z,546
2017-01-17T07:08:22.666Z,546
2017-01-17T07:09:22.795Z,546
2017-01-17T07:10:22.859Z,547
2017-01-17T07:11:22.976Z,547
2017-01-17T07:12:23.155Z,546
2017-01-17T07:13:23.244Z,546
2017-01-17T07:14:23.400Z,546
2017-01-17T07:15:23.467Z,546
2017-01-17T07:16:23.580Z,545
2017-01-17T07:17:23.707Z,544
2017-01-17T07:18:23.843Z,545
2017-01-17T07:19:23.962Z,544
2017-01-17T07:20:24.041Z,544
2017-01-17T07:21:24.174Z,545
2017-01-17T07:22:24.293Z,545
2017-01-17T07:23:24.416Z,547
2017-01-17T07:24:24.532Z,548
2017-01-17T07:25:24.621Z,547
2017-01-17T07:26:24.696Z,546
2017-01-17T07:27:24.785Z,546
2017-01-17T07:28:24.895Z,545
2017-01-17T07:29:25.045Z,545
2017-01-17T07:30:25.111Z,545
2017-01-17T07:31:25.228Z,543
2017-01-17T07:32:25.354Z,543
2017-01-17T07:33:25.514Z,544
2017-01-17T07:34:25.612Z,545
2017-01-17T07:35:25.707Z,546
2017-01-17T07:36:25.834Z,547
2017-01-17T07:37:25.951Z,546
2017-01-17T07:38:26.027Z,545
2017-01-17T07:39:26.180Z,546
2017-01-17T07:40:26.269Z,545
2017-01-17T07:41:26.353Z,545
2017-01-17T07:42:26.518Z,543
2017-01-17T07:43:26.684Z,541
2017-01-17T07:44:26.818Z,545
2017-01-17T07:45:26.908Z,547
2017-01-17T07:46:27.083Z,546
2017-01-17T07:47:27.202Z,547
2017-01-17T07:48:27.341Z,544
2017-01-17T07:49:27.452Z,544
2017-01-17T07:50:27.547Z,546
2017-01-17T07:51:27.639Z,545
2017-01-17T07:52:27.717Z,543
2017-01-17T07:53:27.862Z,530
2017-01-17T07:54:28.119Z,533
2017-01-17T07:55:28.206Z,537
2017-01-17T07:56:28.315Z,541
2017-01-17T07:57:28.458Z,542
2017-01-17T07:58:28.570Z,538
2017-01-17T07:59:28.677Z,538
2017-01-17T08:00:28.756Z,537
2017-01-17T08:01:28.886Z,536
2017-01-17T08:02:28.995Z,535
2017-01-17T08:03:29.142Z,535
2017-01-17T08:04:29.221Z,534
2017-01-17T08:05:29.311Z,534
2017-01-17T08:06:29.412Z,535
2017-01-17T08:07:29.499Z,535
2017-01-17T08:08:29.592Z,536
2017-01-17T08:09:29.653Z,536
2017-01-17T08:10:29.721Z,537
2017-01-17T08:11:29.823Z,538
2017-01-17T08:12:29.909Z,539
2017-01-17T08:13:30.187Z,537
2017-01-17T08:14:30.460Z,536
2017-01-17T08:15:30.738Z,537
2017-01-17T08:16:30.887Z,532
2017-01-17T08:17:31.163Z,535
2017-01-17T08:18:31.438Z,538
2017-01-17T08:19:31.527Z,539
2017-01-17T08:20:31.819Z,531
2017-01-17T08:21:31.968Z,532
2017-01-17T08:22:32.107Z,534
2017-01-17T08:23:32.223Z,535
2017-01-17T08:24:32.290Z,532
2017-01-17T08:25:32.417Z,534
2017-01-17T08:26:32.568Z,533
2017-01-17T08:27:32.674Z,534
2017-01-17T08:28:32.919Z,532
2017-01-17T08:29:33.047Z,533
2017-01-17T08:30:33.147Z,530
2017-01-17T08:31:33.254Z,534
2017-01-17T08:32:33.361Z,534
2017-01-17T08:33:33.480Z,536
2017-01-17T08:34:33.580Z,536
2017-01-17T08:35:33.695Z,536
2017-01-17T08:36:33.786Z,527
2017-01-17T08:37:33.887Z,527
2017-01-17T08:38:34.029Z,523
2017-01-17T08:39:34.161Z,523
2017-01-17T08:40:34.322Z,523
2017-01-17T08:41:34.451Z,522
2017-01-17T08:42:34.559Z,523
2017-01-17T08:43:34.671Z,522
2017-01-17T08:44:34.845Z,525
2017-01-17T08:45:34.995Z,519
2017-01-17T08:46:35.103Z,520
2017-01-17T08:47:35.208Z,526
2017-01-17T08:48:35.310Z,524
2017-01-17T08:49:35.419Z,524
2017-01-17T08:50:35.542Z,525
2017-01-17T08:51:35.636Z,525
2017-01-17T08:52:35.787Z,524
2017-01-17T08:53:35.870Z,526
2017-01-17T08:54:35.943Z,533
2017-01-17T08:55:36.071Z,530
2017-01-17T08:56:36.146Z,569
2017-01-17T08:57:36.243Z,569
2017-01-17T08:58:36.388Z,570
2017-01-17T08:59:36.565Z,568
2017-01-17T09:00:36.741Z,568
2017-01-17T09:01:36.914Z,562
2017-01-17T09:02:37.078Z,566
2017-01-17T09:03:37.198Z,568
2017-01-17T09:04:37.290Z,562
2017-01-17T09:05:37.429Z,569
2017-01-17T09:06:37.626Z,569
2017-01-17T09:07:37.747Z,567
2017-01-17T09:08:37.886Z,516
2017-01-17T09:09:38.041Z,551
2017-01-17T09:10:38.205Z,553
2017-01-17T09:11:38.344Z,516
2017-01-17T09:12:38.484Z,517
2017-01-17T09:13:38.609Z,519
2017-01-17T09:14:38.700Z,520
2017-01-17T09:15:38.828Z,519
2017-01-17T09:16:38.968Z,522
2017-01-17T09:17:39.083Z,517
2017-01-17T09:18:39.226Z,519
2017-01-17T09:19:39.370Z,518
2017-01-17T09:20:39.471Z,520
2017-01-17T09:21:39.634Z,515
2017-01-17T09:22:39.770Z,519
2017-01-17T09:23:39.861Z,520
2017-01-17T09:24:40.019Z,517
2017-01-17T09:25:40.179Z,517
2017-01-17T09:26:40.308Z,518
2017-01-17T09:27:40.433Z,519
2017-01-17T09:28:40.520Z,522
2017-01-17T09:29:40.645Z,519
2017-01-17T09:30:40.783Z,518
2017-01-17T09:31:40.915Z,523
2017-01-17T09:32:41.021Z,520
2017-01-17T09:33:41.107Z,520
2017-01-17T09:34:41.199Z,517
2017-01-17T09:35:41.298Z,521
2017-01-17T09:36:41.601Z,517
2017-01-17T09:37:41.691Z,522
2017-01-17T09:38:41.803Z,641
2017-01-17T09:39:41.922Z,657
2017-01-17T09:40:42.084Z,658
2017-01-17T09:41:42.166Z,659
2017-01-17T09:42:42.280Z,660
2017-01-17T09:43:42.365Z,660
2017-01-17T09:44:42.451Z,662
2017-01-17T09:45:42.618Z,660
2017-01-17T09:46:42.774Z,657
2017-01-17T09:47:42.896Z,660
2017-01-17T09:48:43.027Z,660
2017-01-17T09:49:43.096Z,661
2017-01-17T09:50:43.282Z,660
2017-01-17T09:51:43.407Z,662
2017-01-17T09:52:43.598Z,662
2017-01-17T09:53:43.671Z,659
2017-01-17T09:54:43.765Z,661
2017-01-17T09:55:43.890Z,662
2017-01-17T09:56:43.968Z,657
2017-01-17T09:57:44.085Z,659
2017-01-17T09:58:44.163Z,663
2017-01-17T09:59:44.238Z,662
2017-01-17T10:00:44.478Z,663
2017-01-17T10:01:44.579Z,662
2017-01-17T10:02:44.710Z,662
2017-01-17T10:03:44.867Z,659
2017-01-17T10:04:44.993Z,663
2017-01-17T10:05:45.104Z,661
2017-01-17T10:06:45.307Z,662
2017-01-17T10:07:45.407Z,661
2017-01-17T10:08:45.582Z,659
2017-01-17T10:09:45.760Z,662
2017-01-17T10:10:45.826Z,664
2017-01-17T10:11:45.904Z,663
2017-01-17T10:12:46.033Z,662
2017-01-17T10:13:46.221Z,660
2017-01-17T10:14:46.326Z,662
2017-01-17T10:15:46.440Z,662
2017-01-17T10:16:46.579Z,663
2017-01-17T10:17:46.723Z,662
2017-01-17T10:18:46.841Z,663
2017-01-17T10:19:46.975Z,664
2017-01-17T10:20:47.104Z,659
2017-01-17T10:21:47.237Z,661
2017-01-17T10:22:47.858Z,661
2017-01-17T10:23:47.947Z,661
2017-01-17T10:24:48.100Z,660
2017-01-17T10:25:48.316Z,662
2017-01-17T10:26:48.433Z,663
2017-01-17T10:27:48.518Z,653
2017-01-17T10:28:48.627Z,658
2017-01-17T10:29:48.701Z,658
2017-01-17T10:30:48.785Z,659
2017-01-17T10:31:48.880Z,662
2017-01-17T10:32:49.024Z,661
2017-01-17T10:33:49.169Z,662
2017-01-17T10:34:49.263Z,658
2017-01-17T10:35:49.387Z,657
2017-01-17T10:36:49.515Z,659
2017-01-17T10:37:49.608Z,659
2017-01-17T10:38:49.724Z,661
2017-01-17T10:39:49.823Z,659
2017-01-17T10:40:49.926Z,659
2017-01-17T10:41:50.039Z,660
2017-01-17T10:42:50.161Z,657
2017-01-17T10:43:50.290Z,658
2017-01-17T10:44:50.381Z,659
2017-01-17T10:45:50.515Z,657
2017-01-17T10:46:50.628Z,656
2017-01-17T10:47:50.755Z,656
2017-01-17T10:48:50.887Z,654
2017-01-17T10:49:51.013Z,656
2017-01-17T10:50:51.152Z,657
2017-01-17T10:51:51.245Z,658
2017-01-17T10:52:51.332Z,660
2017-01-17T10:53:51.455Z,660
2017-01-17T10:54:51.561Z,659
2017-01-17T10:55:51.662Z,658
2017-01-17T10:56:51.779Z,656
2017-01-17T10:57:51.944Z,655
2017-01-17T10:58:52.040Z,654
2017-01-17T10:59:52.157Z,651
2017-01-17T11:00:52.250Z,655
2017-01-17T11:01:52.553Z,655
2017-01-17T11:02:52.772Z,660
2017-01-17T11:03:52.880Z,662
2017-01-17T11:04:53.001Z,659
2017-01-17T11:05:53.147Z,657
2017-01-17T11:06:53.244Z,657
2017-01-17T11:07:53.332Z,659
2017-01-17T11:08:53.461Z,655
2017-01-17T11:09:53.607Z,650
2017-01-17T11:10:53.708Z,655
2017-01-17T11:11:53.849Z,654
2017-01-17T11:12:53.986Z,655
2017-01-17T11:13:54.160Z,651
2017-01-17T11:14:54.234Z,648
2017-01-17T11:15:54.321Z,651
2017-01-17T11:16:54.424Z,652
2017-01-17T11:17:54.574Z,653
2017-01-17T11:18:54.679Z,654
2017-01-17T11:19:54.799Z,656
2017-01-17T11:20:54.951Z,656
2017-01-17T11:21:55.079Z,655
2017-01-17T11:22:55.204Z,654
2017-01-17T11:23:55.319Z,656
2017-01-17T11:24:55.455Z,652
2017-01-17T11:25:55.628Z,652
2017-01-17T11:26:55.705Z,654
2017-01-17T11:27:55.801Z,653
2017-01-17T11:28:55.927Z,653
2017-01-17T11:29:56.079Z,652
2017-01-17T11:30:56.192Z,654
2017-01-17T11:31:56.448Z,651
2017-01-17T11:32:56.577Z,651
2017-01-17T11:33:56.669Z,651
2017-01-17T11:34:56.766Z,650
2017-01-17T11:35:56.898Z,652
2017-01-17T11:36:56.989Z,650
2017-01-17T11:37:57.060Z,652
2017-01-17T11:38:57.221Z,649
2017-01-17T11:39:57.332Z,652
2017-01-17T11:40:57.440Z,652
2017-01-17T11:41:57.528Z,654
2017-01-17T11:42:57.608Z,652
2017-01-17T11:43:57.695Z,650
2017-01-17T11:44:57.802Z,645
2017-01-17T11:45:57.945Z,640
2017-01-17T11:46:58.051Z,637
2017-01-17T11:47:58.116Z,634
2017-01-17T11:48:58.242Z,634
2017-01-17T11:49:58.400Z,632
2017-01-17T11:50:58.540Z,630
2017-01-17T11:51:58.691Z,628
2017-01-17T11:52:58.810Z,627
2017-01-17T11:53:58.964Z,628
2017-01-17T11:54:59.041Z,628
2017-01-17T11:55:59.184Z,630
2017-01-17T11:56:59.299Z,630
2017-01-17T11:57:59.392Z,631
2017-01-17T11:58:59.486Z,631
2017-01-17T11:59:59.598Z,630
2017-01-17T12:00:59.690Z,628
2017-01-17T12:01:59.811Z,624
2017-01-17T12:02:59.924Z,631
2017-01-17T12:04:00.063Z,630
2017-01-17T12:05:00.155Z,631
2017-01-17T12:06:00.273Z,631
2017-01-17T12:07:00.354Z,632
2017-01-17T12:08:00.446Z,633
2017-01-17T12:09:00.525Z,633
2017-01-17T12:10:00.667Z,633
2017-01-17T12:11:00.806Z,632
2017-01-17T12:12:00.893Z,633
2017-01-17T12:13:01.045Z,633
2017-01-17T12:14:01.134Z,634
2017-01-17T12:15:01.247Z,635
2017-01-17T12:16:01.417Z,634
2017-01-17T12:17:01.558Z,634
2017-01-17T12:18:01.709Z,633
2017-01-17T12:19:01.874Z,633
2017-01-17T12:20:01.969Z,633
2017-01-17T12:21:02.079Z,632
2017-01-17T12:22:02.208Z,633
2017-01-17T12:23:02.279Z,633
2017-01-17T12:24:02.501Z,633
2017-01-17T12:25:02.578Z,634
2017-01-17T12:26:02.742Z,635
2017-01-17T12:27:02.878Z,636
2017-01-17T12:28:02.964Z,636
2017-01-17T12:29:03.101Z,635
2017-01-17T12:30:03.272Z,633
2017-01-17T12:31:03.407Z,634
2017-01-17T12:32:03.508Z,635
2017-01-17T12:33:03.594Z,636
2017-01-17T12:34:03.719Z,635
2017-01-17T12:35:03.803Z,635
2017-01-17T12:36:03.906Z,634
2017-01-17T12:37:04.019Z,634
2017-01-17T12:38:04.146Z,634
2017-01-17T12:39:04.255Z,635
2017-01-17T12:40:04.389Z,639
2017-01-17T12:41:04.505Z,644
2017-01-17T12:42:04.615Z,649
2017-01-17T12:43:04.704Z,649
2017-01-17T12:44:04.791Z,649
2017-01-17T12:45:04.898Z,646
2017-01-17T12:46:05.036Z,644
2017-01-17T12:47:05.124Z,644
2017-01-17T12:48:05.239Z,644
2017-01-17T12:49:05.386Z,646
2017-01-17T12:50:05.502Z,647
2017-01-17T12:51:05.620Z,649
2017-01-17T12:52:05.758Z,649
2017-01-17T12:53:05.856Z,649
2017-01-17T12:54:06.008Z,649
2017-01-17T12:55:06.184Z,649
2017-01-17T12:56:06.299Z,649
2017-01-17T12:57:06.410Z,648
2017-01-17T12:58:06.520Z,646
2017-01-17T12:59:06.764Z,644
2017-01-17T13:00:06.858Z,640
2017-01-17T13:01:06.982Z,640
2017-01-17T13:02:07.114Z,642
2017-01-17T13:03:07.241Z,641
2017-01-17T13:04:07.366Z,641
2017-01-17T13:05:07.480Z,639
2017-01-17T13:06:07.607Z,638
2017-01-17T13:07:07.689Z,638
2017-01-17T13:08:07.858Z,637
2017-01-17T13:09:07.991Z,635
2017-01-17T13:10:08.179Z,636
2017-01-17T13:11:08.322Z,638
2017-01-17T13:12:08.467Z,638
2017-01-17T13:13:08.601Z,637
2017-01-17T13:14:08.712Z,638
2017-01-17T13:15:08.777Z,639
2017-01-17T13:16:08.891Z,639
2017-01-17T13:17:08.989Z,638
2017-01-17T13:18:09.098Z,636
2017-01-17T13:19:09.167Z,636
2017-01-17T13:20:09.250Z,636
2017-01-17T13:21:09.344Z,636
2017-01-17T13:22:09.501Z,638
2017-01-17T13:23:09.647Z,638
2017-01-17T13:24:09.762Z,639
2017-01-17T13:25:09.890Z,639
2017-01-17T13:26:10.023Z,642
2017-01-17T13:27:10.153Z,641
2017-01-17T13:28:10.259Z,641
2017-01-17T13:29:10.376Z,639
2017-01-17T13:30:10.475Z,640
2017-01-17T13:31:10.623Z,641
2017-01-17T13:32:10.723Z,642
2017-01-17T13:33:10.795Z,643
2017-01-17T13:34:10.940Z,644
2017-01-17T13:35:11.066Z,643
2017-01-17T13:36:11.148Z,643
2017-01-17T13:37:11.234Z,642
2017-01-17T13:38:11.370Z,639
2017-01-17T13:39:11.478Z,638
2017-01-17T13:40:11.561Z,641
2017-01-17T13:41:11.653Z,637
2017-01-17T13:42:11.818Z,635
2017-01-17T13:43:11.973Z,635
2017-01-17T13:44:12.074Z,636
2017-01-17T13:45:12.147Z,637
2017-01-17T13:46:12.361Z,637
2017-01-17T13:47:12.475Z,636
2017-01-17T13:48:12.590Z,638